createdAt,value
2022-11-27T00:01:14.689Z,12.20
2022-11-27T00:03:42.358Z,12.10
2022-11-27T00:06:13.037Z,12.10
2022-11-27T00:08:40.018Z,12.00
2022-11-27T00:11:09.654Z,12.00
2022-11-27T00:13:37.238Z,12.00
2022-11-27T00:16:05.287Z,11.90
2022-11-27T00:18:32.450Z,11.90
2022-11-27T00:21:07.535Z,11.80
2022-11-27T00:23:35.122Z,11.80
2022-11-27T00:26:02.334Z,11.90
2022-11-27T00:28:29.304Z,11.70
2022-11-27T00:31:03.649Z,11.80
2022-11-27T00:33:30.645Z,11.80
2022-11-27T00:36:01.516Z,11.80
2022-11-27T00:38:28.285Z,11.80
2022-11-27T00:40:58.310Z,11.70
2022-11-27T00:43:25.102Z,11.70
2022-11-27T00:45:51.868Z,11.70
2022-11-27T00:48:18.719Z,11.70
2022-11-27T00:50:45.523Z,11.70
2022-11-27T00:53:12.544Z,11.70
2022-11-27T00:55:39.326Z,11.70
2022-11-27T00:58:06.177Z,11.70
2022-11-27T01:00:32.997Z,11.70
2022-11-27T01:02:59.878Z,11.70
2022-11-27T01:05:26.742Z,11.70
2022-11-27T01:07:53.609Z,11.60
2022-11-27T01:10:20.489Z,11.60
2022-11-27T01:12:50.009Z,11.60
2022-11-27T01:15:16.929Z,11.60
2022-11-27T01:17:43.670Z,11.70
2022-11-27T01:20:11.065Z,11.70
2022-11-27T01:22:37.905Z,11.60
2022-11-27T01:25:05.130Z,11.60
2022-11-27T01:27:31.989Z,11.70
2022-11-27T01:29:58.773Z,11.70
2022-11-27T01:32:26.401Z,11.70
2022-11-27T01:34:54.470Z,11.60
2022-11-27T01:37:21.393Z,11.70
2022-11-27T01:39:48.194Z,11.70
2022-11-27T01:42:14.968Z,11.60
2022-11-27T01:44:52.674Z,11.60
2022-11-27T01:47:31.519Z,11.60
2022-11-27T01:50:12.366Z,11.70
2022-11-27T01:52:44.420Z,11.60
2022-11-27T01:55:43.142Z,11.70
2022-11-27T01:58:13.503Z,11.50
2022-11-27T02:00:41.140Z,11.60
2022-11-27T02:03:08.083Z,11.70
2022-11-27T02:05:35.033Z,11.60
2022-11-27T02:08:09.889Z,11.60
2022-11-27T02:10:55.280Z,11.60
2022-11-27T02:13:33.968Z,11.50
2022-11-27T02:16:31.674Z,11.60
2022-11-27T02:19:14.278Z,11.50
2022-11-27T02:21:49.974Z,11.50
2022-11-27T02:24:50.282Z,11.60
2022-11-27T02:27:26.085Z,11.50
2022-11-27T02:29:57.311Z,11.50
2022-11-27T02:32:42.179Z,11.50
2022-11-27T02:35:21.656Z,11.50
2022-11-27T02:37:58.126Z,11.50
2022-11-27T02:40:32.075Z,11.50
2022-11-27T02:43:16.950Z,11.60
2022-11-27T02:45:49.370Z,11.50
2022-11-27T02:48:19.648Z,11.50
2022-11-27T02:50:49.075Z,11.40
2022-11-27T02:53:31.754Z,11.40
2022-11-27T02:56:00.244Z,11.50
2022-11-27T02:58:28.436Z,11.50
2022-11-27T03:00:56.881Z,11.40
2022-11-27T03:03:29.696Z,11.40
2022-11-27T03:06:01.434Z,11.30
2022-11-27T03:08:50.046Z,11.40
2022-11-27T03:11:17.291Z,11.40
2022-11-27T03:13:47.700Z,11.50
2022-11-27T03:16:39.566Z,11.40
2022-11-27T03:19:06.341Z,11.50
2022-11-27T03:21:40.950Z,11.30
2022-11-27T03:24:08.938Z,11.40
2022-11-27T03:26:37.081Z,11.30
2022-11-27T03:29:07.517Z,11.30
2022-11-27T03:31:34.512Z,11.40
2022-11-27T03:34:01.978Z,11.30
2022-11-27T03:36:29.066Z,11.30
2022-11-27T03:38:55.974Z,11.30
2022-11-27T03:41:41.149Z,11.30
2022-11-27T03:44:20.749Z,11.30
2022-11-27T03:47:06.090Z,11.30
2022-11-27T03:49:50.775Z,11.20
2022-11-27T03:52:22.724Z,11.20
2022-11-27T03:54:58.896Z,11.20
2022-11-27T03:57:44.305Z,11.10
2022-11-27T04:00:12.518Z,11.20
2022-11-27T04:02:49.863Z,11.10
2022-11-27T04:05:17.482Z,11.10
2022-11-27T04:07:44.391Z,11.20
2022-11-27T04:10:12.335Z,11.20
2022-11-27T04:12:39.238Z,11.20
2022-11-27T04:15:06.952Z,11.20
2022-11-27T04:17:33.969Z,11.20
2022-11-27T04:20:00.845Z,11.20
2022-11-27T04:22:27.593Z,11.20
2022-11-27T04:24:54.388Z,11.20
2022-11-27T04:27:21.230Z,11.20
2022-11-27T04:29:48.021Z,11.20
2022-11-27T04:32:14.876Z,11.20
2022-11-27T04:34:41.877Z,11.20
2022-11-27T04:37:08.892Z,11.20
2022-11-27T04:39:35.701Z,11.20
2022-11-27T04:42:02.675Z,11.10
2022-11-27T04:44:29.543Z,11.20
2022-11-27T04:46:56.434Z,11.10
2022-11-27T04:49:23.344Z,11.00
2022-11-27T04:51:50.113Z,11.10
2022-11-27T04:54:17.202Z,11.10
2022-11-27T04:56:44.148Z,11.10
2022-11-27T04:59:10.990Z,11.10
2022-11-27T05:01:37.870Z,11.00
2022-11-27T05:04:04.826Z,11.00
2022-11-27T05:06:31.616Z,11.10
2022-11-27T05:09:02.040Z,11.10
2022-11-27T05:11:30.362Z,11.10
2022-11-27T05:14:15.577Z,11.10
2022-11-27T05:16:47.423Z,11.10
2022-11-27T05:19:16.108Z,11.10
2022-11-27T05:21:43.242Z,11.10
2022-11-27T05:24:10.824Z,11.20
2022-11-27T05:26:38.242Z,11.10
2022-11-27T05:29:05.837Z,11.20
2022-11-27T05:31:33.361Z,11.20
2022-11-27T05:34:00.262Z,11.20
2022-11-27T05:36:27.337Z,11.20
2022-11-27T05:38:54.225Z,11.10
2022-11-27T05:41:21.438Z,11.10
2022-11-27T05:43:48.347Z,11.20
2022-11-27T05:46:18.730Z,11.10
2022-11-27T05:48:45.580Z,11.00
2022-11-27T05:51:12.425Z,11.00
2022-11-27T05:53:39.266Z,11.00
2022-11-27T05:56:09.182Z,11.00
2022-11-27T05:58:37.361Z,11.10
2022-11-27T06:01:05.053Z,11.10
2022-11-27T06:03:32.238Z,11.00
2022-11-27T06:05:59.107Z,11.00
2022-11-27T06:08:25.810Z,11.10
2022-11-27T06:10:52.593Z,11.00
2022-11-27T06:13:19.366Z,11.00
2022-11-27T06:15:46.167Z,11.10
2022-11-27T06:18:13.089Z,11.00
2022-11-27T06:20:44.113Z,11.10
2022-11-27T06:23:11.489Z,11.00
2022-11-27T06:25:38.330Z,11.00
2022-11-27T06:28:05.137Z,11.00
2022-11-27T06:30:31.889Z,11.00
2022-11-27T06:32:58.724Z,10.90
2022-11-27T06:35:25.625Z,10.90
2022-11-27T06:37:52.602Z,10.90
2022-11-27T06:40:19.491Z,11.00
2022-11-27T06:42:46.301Z,11.00
2022-11-27T06:45:14.041Z,11.00
2022-11-27T06:47:40.895Z,11.00
2022-11-27T06:50:10.784Z,11.00
2022-11-27T06:52:40.664Z,11.00
2022-11-27T06:55:08.182Z,11.00
2022-11-27T06:57:35.002Z,11.10
2022-11-27T07:00:01.823Z,11.10
2022-11-27T07:02:28.772Z,11.10
2022-11-27T07:04:55.641Z,11.10
2022-11-27T07:07:22.509Z,11.20
2022-11-27T07:09:49.345Z,11.10
2022-11-27T07:12:16.193Z,11.20
2022-11-27T07:14:43.163Z,11.20
2022-11-27T07:17:09.995Z,11.20
2022-11-27T07:19:36.773Z,11.20
2022-11-27T07:22:03.593Z,11.10
2022-11-27T07:24:30.495Z,11.20
2022-11-27T07:26:57.213Z,11.30
2022-11-27T07:29:24.048Z,11.20
2022-11-27T07:31:51.852Z,11.30
2022-11-27T07:34:21.579Z,11.20
2022-11-27T07:36:48.894Z,11.30
2022-11-27T07:39:22.264Z,11.30
2022-11-27T07:41:59.826Z,11.30
2022-11-27T07:44:26.840Z,11.30
2022-11-27T07:46:53.648Z,11.40
2022-11-27T07:49:20.473Z,11.30
2022-11-27T07:51:47.281Z,11.40
2022-11-27T07:54:14.046Z,11.40
2022-11-27T07:56:40.836Z,11.40
2022-11-27T07:59:07.680Z,11.40
2022-11-27T08:01:34.494Z,11.50
2022-11-27T08:04:01.330Z,11.50
2022-11-27T08:06:28.205Z,11.50
2022-11-27T08:08:58.165Z,11.70
2022-11-27T08:11:31.503Z,11.70
2022-11-27T08:14:01.280Z,11.70
2022-11-27T08:16:28.881Z,11.70
2022-11-27T08:18:55.774Z,11.80
2022-11-27T08:21:23.352Z,11.80
2022-11-27T08:23:50.223Z,11.90
2022-11-27T08:26:17.150Z,11.90
2022-11-27T08:28:44.235Z,12.10
2022-11-27T08:31:13.163Z,12.10
2022-11-27T08:33:40.044Z,12.20
2022-11-27T08:36:09.762Z,12.20
2022-11-27T08:38:39.189Z,12.30
2022-11-27T08:41:08.405Z,12.40
2022-11-27T08:43:36.062Z,12.50
2022-11-27T08:46:07.107Z,12.60
2022-11-27T08:48:34.188Z,12.60
2022-11-27T08:51:09.904Z,12.80
2022-11-27T08:53:37.834Z,12.90
2022-11-27T08:56:16.847Z,12.90
2022-11-27T08:58:44.439Z,13.00
2022-11-27T09:01:17.547Z,13.10
2022-11-27T09:03:44.941Z,13.20
2022-11-27T09:06:14.946Z,13.20
2022-11-27T09:08:43.178Z,13.20
2022-11-27T09:11:11.908Z,13.30
2022-11-27T09:13:40.482Z,13.40
2022-11-27T09:16:12.707Z,13.40
2022-11-27T09:18:40.032Z,13.40
2022-11-27T09:21:11.694Z,13.40
2022-11-27T09:23:39.651Z,13.50
2022-11-27T09:26:12.637Z,13.40
2022-11-27T09:28:40.913Z,13.50
2022-11-27T09:31:10.315Z,13.60
2022-11-27T09:33:39.322Z,13.60
2022-11-27T09:36:21.942Z,13.70
2022-11-27T09:38:49.578Z,13.80
2022-11-27T09:41:19.497Z,13.80
2022-11-27T09:43:59.414Z,13.80
2022-11-27T09:46:38.844Z,13.80
2022-11-27T09:49:09.774Z,13.90
2022-11-27T09:51:44.163Z,13.90
2022-11-27T09:54:36.205Z,13.90
2022-11-27T09:57:04.720Z,13.90
2022-11-27T09:59:49.034Z,13.90
2022-11-27T10:02:16.994Z,14.00
2022-11-27T10:05:05.671Z,13.90
2022-11-27T10:07:44.012Z,14.00
2022-11-27T10:10:34.752Z,14.10
2022-11-27T10:13:26.653Z,14.00
2022-11-27T10:16:06.205Z,14.10
2022-11-27T10:18:42.472Z,14.10
2022-11-27T10:21:15.040Z,14.20
2022-11-27T10:23:55.926Z,14.20
2022-11-27T10:26:33.941Z,14.30
2022-11-27T10:29:14.108Z,14.30
2022-11-27T10:31:50.203Z,14.30
2022-11-27T10:34:34.157Z,14.40
2022-11-27T10:37:06.793Z,14.40
2022-11-27T10:39:43.654Z,14.40
2022-11-27T10:42:17.533Z,14.40
2022-11-27T10:45:05.851Z,14.50
2022-11-27T10:47:34.082Z,14.50
2022-11-27T10:50:01.046Z,14.50
2022-11-27T10:52:27.936Z,14.60
2022-11-27T10:55:01.828Z,14.50
2022-11-27T10:57:50.925Z,14.70
2022-11-27T11:00:25.026Z,14.80
2022-11-27T11:03:06.009Z,14.90
2022-11-27T11:05:56.919Z,14.90
2022-11-27T11:08:21.553Z,14.90
2022-11-27T11:10:53.715Z,14.90
2022-11-27T11:13:20.613Z,14.90
2022-11-27T11:15:52.497Z,14.90
2022-11-27T11:18:35.673Z,15.00
2022-11-27T11:21:05.404Z,15.00
2022-11-27T11:23:39.303Z,15.00
2022-11-27T11:26:23.870Z,15.00
2022-11-27T11:28:53.889Z,15.10
2022-11-27T11:31:32.944Z,15.00
2022-11-27T11:34:03.804Z,15.00
2022-11-27T11:36:30.897Z,14.90
2022-11-27T11:38:58.101Z,15.00
2022-11-27T11:41:25.088Z,15.10
2022-11-27T11:44:01.340Z,15.10
2022-11-27T11:46:32.114Z,15.10
2022-11-27T11:49:17.433Z,15.10
2022-11-27T11:52:22.304Z,15.20
2022-11-27T11:55:01.369Z,15.30
2022-11-27T11:57:34.256Z,15.20
2022-11-27T12:00:21.195Z,15.20
2022-11-27T12:02:58.611Z,15.30
2022-11-27T12:05:46.609Z,15.30
2022-11-27T12:08:31.918Z,15.20
2022-11-27T12:11:16.320Z,15.30
2022-11-27T12:14:11.292Z,15.40
2022-11-27T12:17:17.210Z,15.40
2022-11-27T12:20:02.743Z,15.50
2022-11-27T12:22:40.404Z,15.40
2022-11-27T12:25:22.564Z,15.40
2022-11-27T12:28:13.687Z,15.40
2022-11-27T12:31:03.056Z,15.40
2022-11-27T12:34:01.271Z,15.40
2022-11-27T12:36:46.395Z,15.40
2022-11-27T12:39:42.240Z,15.40
2022-11-27T12:42:38.852Z,15.50
2022-11-27T12:45:50.821Z,15.40
2022-11-27T12:48:39.152Z,15.40
2022-11-27T12:51:37.307Z,15.50
2022-11-27T12:54:45.830Z,15.40
2022-11-27T12:57:18.421Z,15.50
2022-11-27T13:00:04.718Z,15.50
2022-11-27T13:02:46.796Z,15.50
2022-11-27T13:05:22.756Z,15.60
2022-11-27T13:08:11.666Z,15.60
2022-11-27T13:10:58.555Z,15.60
2022-11-27T13:13:45.767Z,15.60
2022-11-27T13:16:35.233Z,15.50
2022-11-27T13:19:16.349Z,15.50
2022-11-27T13:21:45.349Z,15.60
2022-11-27T13:24:13.751Z,15.40
2022-11-27T13:26:48.526Z,15.40
2022-11-27T13:29:45.773Z,15.40
2022-11-27T13:32:23.331Z,15.40
2022-11-27T13:34:52.044Z,15.40
2022-11-27T13:37:29.736Z,15.40
2022-11-27T13:40:00.693Z,15.50
2022-11-27T13:42:28.781Z,15.40
2022-11-27T13:45:07.637Z,15.40
2022-11-27T13:47:43.466Z,15.40
2022-11-27T13:50:13.360Z,15.40
2022-11-27T13:53:07.452Z,15.30
2022-11-27T13:55:37.155Z,15.30
2022-11-27T13:58:05.725Z,15.20
2022-11-27T14:00:39.890Z,15.20
2022-11-27T14:03:10.671Z,15.30
2022-11-27T14:05:41.801Z,15.20
2022-11-27T14:08:28.764Z,15.20
2022-11-27T14:11:04.330Z,15.10
2022-11-27T14:13:49.915Z,15.20
2022-11-27T14:16:33.416Z,15.10
2022-11-27T14:19:22.404Z,15.00
2022-11-27T14:21:49.817Z,15.00
2022-11-27T14:24:44.314Z,15.00
2022-11-27T14:27:23.449Z,15.00
2022-11-27T14:29:51.113Z,14.90
2022-11-27T14:32:19.596Z,15.00
2022-11-27T14:34:50.692Z,14.90
2022-11-27T14:37:25.327Z,14.90
2022-11-27T14:39:52.446Z,14.80
2022-11-27T14:42:28.119Z,14.70
2022-11-27T14:45:13.470Z,14.80
2022-11-27T14:47:47.088Z,14.70
2022-11-27T14:50:14.807Z,14.60
2022-11-27T14:52:54.724Z,14.60
2022-11-27T14:55:24.034Z,14.50
2022-11-27T14:57:51.933Z,14.40
2022-11-27T15:00:21.018Z,14.40
2022-11-27T15:02:51.705Z,14.30
2022-11-27T15:05:20.873Z,14.30
2022-11-27T15:07:50.965Z,14.20
2022-11-27T15:10:28.131Z,14.20
2022-11-27T15:12:55.485Z,14.10
2022-11-27T15:15:28.481Z,14.10
2022-11-27T15:17:58.933Z,14.10
2022-11-27T15:20:45.111Z,14.00
2022-11-27T15:23:20.059Z,13.90
2022-11-27T15:26:18.811Z,13.90
2022-11-27T15:28:53.449Z,13.80
2022-11-27T15:31:37.485Z,13.80
2022-11-27T15:34:16.237Z,13.70
2022-11-27T15:36:44.903Z,13.70
2022-11-27T15:39:20.201Z,13.60
2022-11-27T15:41:53.862Z,13.60
2022-11-27T15:44:20.912Z,13.50
2022-11-27T15:46:47.771Z,13.50
2022-11-27T15:49:15.709Z,13.40
2022-11-27T15:51:43.296Z,13.30
2022-11-27T15:54:10.080Z,13.40
2022-11-27T15:56:36.987Z,13.30
2022-11-27T15:59:04.342Z,13.30
2022-11-27T16:01:31.231Z,13.10
2022-11-27T16:03:58.321Z,13.20
2022-11-27T16:06:25.218Z,13.00
2022-11-27T16:09:02.229Z,13.00
2022-11-27T16:11:30.640Z,13.00
2022-11-27T16:13:58.103Z,13.00
2022-11-27T16:16:25.862Z,12.90
2022-11-27T16:18:57.075Z,12.90
2022-11-27T16:21:29.235Z,12.90
2022-11-27T16:23:58.364Z,12.90
2022-11-27T16:26:25.585Z,12.80
2022-11-27T16:28:52.531Z,12.80
2022-11-27T16:31:19.675Z,12.80
2022-11-27T16:33:46.974Z,12.80
2022-11-27T16:36:16.504Z,12.80
2022-11-27T16:38:44.519Z,12.80
2022-11-27T16:41:13.758Z,12.80
2022-11-27T16:43:43.102Z,12.70
2022-11-27T16:46:12.635Z,12.80
2022-11-27T16:48:41.708Z,12.70
2022-11-27T16:51:11.640Z,12.60
2022-11-27T16:53:44.168Z,12.60
2022-11-27T16:56:12.572Z,12.60
2022-11-27T16:58:41.964Z,12.60
2022-11-27T17:01:18.378Z,12.60
2022-11-27T17:03:45.362Z,12.50
2022-11-27T17:06:15.187Z,12.30
2022-11-27T17:08:42.488Z,12.40
2022-11-27T17:11:12.340Z,12.30
2022-11-27T17:13:39.280Z,12.30
2022-11-27T17:16:08.659Z,12.40
2022-11-27T17:18:40.571Z,12.50
2022-11-27T17:21:18.287Z,12.50
2022-11-27T17:23:46.920Z,12.40
2022-11-27T17:26:18.098Z,12.50
2022-11-27T17:28:45.215Z,12.40
2022-11-27T17:31:17.402Z,12.50
2022-11-27T17:33:44.599Z,12.50
2022-11-27T17:36:12.018Z,12.50
2022-11-27T17:38:39.183Z,12.40
2022-11-27T17:41:08.934Z,12.50
2022-11-27T17:43:37.272Z,12.40
2022-11-27T17:46:14.950Z,12.30
2022-11-27T17:48:42.512Z,12.10
2022-11-27T17:51:09.365Z,12.00
2022-11-27T17:53:36.252Z,12.00
2022-11-27T17:56:08.205Z,11.90
2022-11-27T17:58:35.501Z,11.80
2022-11-27T18:01:03.830Z,11.90
2022-11-27T18:03:31.089Z,11.80
2022-11-27T18:06:01.918Z,11.90
2022-11-27T18:08:28.744Z,11.70
2022-11-27T18:10:55.535Z,11.70
2022-11-27T18:13:22.281Z,11.80
2022-11-27T18:15:49.042Z,11.80
2022-11-27T18:18:16.447Z,11.80
2022-11-27T18:20:43.458Z,11.80
2022-11-27T18:23:10.356Z,11.70
2022-11-27T18:25:46.082Z,11.70
2022-11-27T18:28:15.686Z,11.80
2022-11-27T18:30:42.522Z,11.80
2022-11-27T18:33:09.370Z,11.80
2022-11-27T18:48:02.887Z,11.70
2022-11-27T18:50:30.044Z,12.80
2022-11-27T18:52:57.026Z,12.70
2022-11-27T18:55:24.333Z,12.50
2022-11-27T18:57:51.115Z,12.30
2022-11-27T19:00:18.382Z,12.20
2022-11-27T19:02:45.306Z,12.00
2022-11-27T19:05:12.312Z,11.80
2022-11-27T19:07:39.154Z,11.80
2022-11-27T19:10:06.827Z,11.70
2022-11-27T19:12:33.640Z,11.60
2022-11-27T19:15:00.426Z,11.60
2022-11-27T19:17:32.159Z,11.50
2022-11-27T19:19:59.280Z,11.50
2022-11-27T19:22:26.207Z,11.50
2022-11-27T19:24:53.055Z,11.50
2022-11-27T19:27:19.866Z,11.50
2022-11-27T19:29:46.745Z,11.40
2022-11-27T19:32:13.664Z,11.40
2022-11-27T19:34:40.986Z,11.50
2022-11-27T19:37:07.988Z,11.40
2022-11-27T19:39:34.776Z,11.40
2022-11-27T19:42:01.597Z,11.40
2022-11-27T19:44:28.392Z,11.40
2022-11-27T19:46:55.206Z,11.30
2022-11-27T19:49:22.113Z,11.40
2022-11-27T19:51:49.906Z,11.50
2022-11-27T19:54:19.224Z,11.50
2022-11-27T19:56:46.168Z,11.40
2022-11-27T19:59:13.308Z,11.30
2022-11-27T20:01:40.773Z,11.20
2022-11-27T20:04:10.154Z,11.30
2022-11-27T20:06:38.544Z,11.20
2022-11-27T20:09:06.043Z,11.30
2022-11-27T20:11:35.091Z,11.20
2022-11-27T20:14:04.269Z,11.20
2022-11-27T20:16:32.676Z,11.00
2022-11-27T20:19:00.291Z,11.10
2022-11-27T20:21:27.178Z,11.00
2022-11-27T20:23:54.788Z,11.00
2022-11-27T20:26:24.677Z,11.00
2022-11-27T20:28:53.207Z,11.00
2022-11-27T20:31:35.434Z,10.90
2022-11-27T20:34:04.136Z,10.80
2022-11-27T20:36:33.593Z,10.70
2022-11-27T20:39:00.987Z,10.80
2022-11-27T20:41:28.112Z,10.70
2022-11-27T20:43:57.814Z,10.60
2022-11-27T20:46:25.526Z,10.70
2022-11-27T20:48:53.509Z,10.60
2022-11-27T20:51:24.210Z,10.60
2022-11-27T20:53:51.394Z,10.50
2022-11-27T20:56:20.116Z,10.50
2022-11-27T20:58:48.135Z,10.40
2022-11-27T21:01:20.835Z,10.50
2022-11-27T21:03:50.017Z,10.50
2022-11-27T21:06:19.221Z,10.30
2022-11-27T21:08:46.565Z,10.30
2022-11-27T21:11:25.026Z,10.30
2022-11-27T21:13:55.994Z,10.30
2022-11-27T21:16:24.733Z,10.20
2022-11-27T21:18:57.814Z,10.10
2022-11-27T21:21:25.882Z,10.20
2022-11-27T21:23:53.536Z,10.10
2022-11-27T21:26:20.668Z,10.10
2022-11-27T21:28:47.684Z,10.10
2022-11-27T21:31:20.232Z,10.00
2022-11-27T21:33:48.990Z,10.00
2022-11-27T21:36:16.195Z,10.00
2022-11-27T21:38:43.159Z,10.00
2022-11-27T21:41:13.724Z,10.00
2022-11-27T21:43:41.552Z,10.00
2022-11-27T21:46:10.083Z,10.00
2022-11-27T21:48:36.937Z,9.90
2022-11-27T21:51:05.071Z,10.00
2022-11-27T21:53:32.633Z,9.90
2022-11-27T21:56:03.101Z,10.00
2022-11-27T21:58:34.168Z,10.00
2022-11-27T22:01:02.185Z,9.90
2022-11-27T22:03:29.207Z,9.90
2022-11-27T22:06:09.929Z,10.00
2022-11-27T22:08:36.793Z,9.90
2022-11-27T22:11:08.067Z,9.90
2022-11-27T22:13:35.402Z,9.90
2022-11-27T22:16:03.122Z,9.90
2022-11-27T22:18:29.901Z,9.80
2022-11-27T22:20:56.750Z,9.90
2022-11-27T22:23:23.537Z,9.80
2022-11-27T22:25:50.349Z,9.80
2022-11-27T22:28:17.129Z,9.80
2022-11-27T22:30:44.021Z,9.70
2022-11-27T22:33:10.859Z,9.70
2022-11-27T22:35:37.625Z,9.70
2022-11-27T22:38:04.386Z,9.70
2022-11-27T22:40:31.209Z,9.70
2022-11-27T22:42:58.076Z,9.70
2022-11-27T22:45:25.003Z,9.60
2022-11-27T22:47:51.878Z,9.60
2022-11-27T22:50:21.403Z,9.60
2022-11-27T22:52:48.160Z,9.50
2022-11-27T22:55:15.037Z,9.50
2022-11-27T22:57:41.834Z,9.50
2022-11-27T23:00:09.983Z,9.50
2022-11-27T23:02:39.815Z,9.30
2022-11-27T23:05:06.849Z,9.20
2022-11-27T23:07:33.647Z,9.40
2022-11-27T23:10:00.460Z,9.20
2022-11-27T23:12:27.234Z,9.30
2022-11-27T23:14:54.042Z,9.20
2022-11-27T23:17:20.857Z,9.20
2022-11-27T23:19:47.616Z,9.10
2022-11-27T23:22:14.461Z,9.20
2022-11-27T23:24:41.390Z,9.20
2022-11-27T23:27:08.383Z,9.20
2022-11-27T23:29:35.172Z,9.20
2022-11-27T23:32:01.975Z,9.20
2022-11-27T23:34:29.247Z,9.10
2022-11-27T23:36:56.055Z,9.20
2022-11-27T23:39:22.894Z,9.10
2022-11-27T23:41:49.913Z,9.00
2022-11-27T23:44:16.750Z,8.90
2022-11-27T23:46:43.664Z,9.10
2022-11-27T23:49:10.420Z,9.00
2022-11-27T23:51:37.300Z,8.80
2022-11-27T23:54:09.209Z,9.00
2022-11-27T23:56:37.175Z,8.90
2022-11-27T23:59:04.853Z,9.00
